sensor_id;sensor_type;location;lat;lon;timestamp;pressure;altitude;pressure_sealevel;temperature;humidity
76632;BME280;65526;48.578;-4.520;2023-04-06T00:01:47;101639.94;;;11.20;89.28
76632;BME280;65526;48.578;-4.520;2023-04-06T00:04:13;101241.78;;;8.50;88.89
76632;BME280;65526;48.578;-4.520;2023-04-06T00:06:40;101082.72;;;8.00;88.79
76632;BME280;65526;48.578;-4.520;2023-04-06T00:09:06;101539.19;;;10.24;89.20
76632;BME280;65526;48.578;-4.520;2023-04-06T00:11:33;101145.91;;;8.06;89.06
76632;BME280;65526;48.578;-4.520;2023-04-06T00:13:59;100988.00;;;7.11;88.78
76632;BME280;65526;48.578;-4.520;2023-04-06T00:16:26;101588.53;;;11.26;89.60
76632;BME280;65526;48.578;-4.520;2023-04-06T00:18:52;101544.75;;;10.42;90.06
76632;BME280;65526;48.578;-4.520;2023-04-06T00:21:19;101607.69;;;11.27;90.16
76632;BME280;65526;48.578;-4.520;2023-04-06T00:23:45;101516.66;;;10.35;89.73
76632;BME280;65526;48.578;-4.520;2023-04-06T00:26:12;100966.44;;;7.39;90.09
76632;BME280;65526;48.578;-4.520;2023-04-06T00:28:43;101049.25;;;7.44;89.27
76632;BME280;65526;48.578;-4.520;2023-04-06T00:31:09;101473.34;;;10.16;89.66
76632;BME280;65526;48.578;-4.520;2023-04-06T00:33:36;100970.56;;;7.02;89.63
76632;BME280;65526;48.578;-4.520;2023-04-06T00:36:02;101284.88;;;8.99;90.09
76632;BME280;65526;48.578;-4.520;2023-04-06T00:38:29;101338.84;;;9.53;89.83
76632;BME280;65526;48.578;-4.520;2023-04-06T00:40:55;101617.47;;;11.33;90.35
76632;BME280;65526;48.578;-4.520;2023-04-06T00:43:22;101189.47;;;8.57;92.06
76632;BME280;65526;48.578;-4.520;2023-04-06T00:45:50;101308.31;;;9.62;91.90
76632;BME280;65526;48.578;-4.520;2023-04-06T00:48:16;101211.00;;;8.60;91.18
76632;BME280;65526;48.578;-4.520;2023-04-06T00:50:43;101571.78;;;11.34;91.67
76632;BME280;65526;48.578;-4.520;2023-04-06T00:53:10;100847.78;;;6.69;90.60
76632;BME280;65526;48.578;-4.520;2023-04-06T00:55:36;101129.84;;;8.51;90.44
76632;BME280;65526;48.578;-4.520;2023-04-06T00:58:03;101014.81;;;8.02;90.67
76632;BME280;65526;48.578;-4.520;2023-04-06T01:00:37;101159.66;;;8.80;90.43
76632;BME280;65526;48.578;-4.520;2023-04-06T01:03:03;101584.81;;;11.13;91.32
76632;BME280;65526;48.578;-4.520;2023-04-06T01:05:38;101057.16;;;7.94;90.47
76632;BME280;65526;48.578;-4.520;2023-04-06T01:08:11;101348.31;;;9.70;90.87
76632;BME280;65526;48.578;-4.520;2023-04-06T01:10:38;100837.28;;;6.80;91.07
76632;BME280;65526;48.578;-4.520;2023-04-06T01:13:23;101228.56;;;9.25;91.00
76632;BME280;65526;48.578;-4.520;2023-04-06T01:15:55;101568.13;;;11.51;91.06
76632;BME280;65526;48.578;-4.520;2023-04-06T01:18:29;101135.22;;;8.65;90.94
76632;BME280;65526;48.578;-4.520;2023-04-06T01:21:18;101560.09;;;11.49;91.81
76632;BME280;65526;48.578;-4.520;2023-04-06T01:24:03;101584.78;;;11.22;91.33
76632;BME280;65526;48.578;-4.520;2023-04-06T01:26:40;101190.31;;;8.66;90.93
76632;BME280;65526;48.578;-4.520;2023-04-06T01:29:09;101024.63;;;8.34;90.86
76632;BME280;65526;48.578;-4.520;2023-04-06T01:31:35;100736.78;;;6.32;90.10
76632;BME280;65526;48.578;-4.520;2023-04-06T01:34:02;101353.91;;;10.25;91.32
76632;BME280;65526;48.578;-4.520;2023-04-06T01:36:28;101039.72;;;8.02;90.56
76632;BME280;65526;48.578;-4.520;2023-04-06T01:39:07;101589.38;;;11.56;92.36
76632;BME280;65526;48.578;-4.520;2023-04-06T01:41:37;101537.47;;;11.22;91.41
76632;BME280;65526;48.578;-4.520;2023-04-06T01:44:03;101576.41;;;11.60;91.29
76632;BME280;65526;48.578;-4.520;2023-04-06T01:46:31;101195.34;;;8.90;91.89
76632;BME280;65526;48.578;-4.520;2023-04-06T01:48:59;101106.00;;;8.85;91.73
76632;BME280;65526;48.578;-4.520;2023-04-06T01:51:39;101270.13;;;9.59;91.84
76632;BME280;65526;48.578;-4.520;2023-04-06T01:54:09;100949.22;;;7.60;91.66
76632;BME280;65526;48.578;-4.520;2023-04-06T01:56:50;101623.56;;;11.65;92.78
76632;BME280;65526;48.578;-4.520;2023-04-06T01:59:43;100954.09;;;7.45;91.91
76632;BME280;65526;48.578;-4.520;2023-04-06T02:02:20;101573.59;;;11.68;92.24
76632;BME280;65526;48.578;-4.520;2023-04-06T02:05:03;101200.38;;;9.05;91.90
76632;BME280;65526;48.578;-4.520;2023-04-06T02:07:33;101054.41;;;8.54;91.81
76632;BME280;65526;48.578;-4.520;2023-04-06T02:10:00;101624.44;;;11.48;92.77
76632;BME280;65526;48.578;-4.520;2023-04-06T02:12:35;100992.38;;;7.86;92.23
76632;BME280;65526;48.578;-4.520;2023-04-06T02:15:02;101224.34;;;9.27;92.66
76632;BME280;65526;48.578;-4.520;2023-04-06T02:17:28;101030.28;;;8.46;92.51
76632;BME280;65526;48.578;-4.520;2023-04-06T02:19:55;101174.66;;;8.79;92.72
76632;BME280;65526;48.578;-4.520;2023-04-06T02:22:21;101179.66;;;9.03;92.76
76632;BME280;65526;48.578;-4.520;2023-04-06T02:24:47;100987.78;;;8.16;93.61
76632;BME280;65526;48.578;-4.520;2023-04-06T02:27:14;101586.41;;;11.61;93.93
76632;BME280;65526;48.578;-4.520;2023-04-06T02:29:45;101547.09;;;11.62;93.62
76632;BME280;65526;48.578;-4.520;2023-04-06T02:32:13;101593.13;;;11.60;94.76
76632;BME280;65526;48.578;-4.520;2023-04-06T02:34:39;100837.94;;;7.28;93.67
76632;BME280;65526;48.578;-4.520;2023-04-06T02:37:05;101595.44;;;11.58;95.09
76632;BME280;65526;48.578;-4.520;2023-04-06T02:39:32;101295.06;;;9.76;94.45
76632;BME280;65526;48.578;-4.520;2023-04-06T02:41:59;101322.75;;;10.02;96.22
76632;BME280;65526;48.578;-4.520;2023-04-06T02:44:26;101106.69;;;8.64;94.60
76632;BME280;65526;48.578;-4.520;2023-04-06T02:46:52;100861.66;;;6.95;95.65
76632;BME280;65526;48.578;-4.520;2023-04-06T02:49:21;101051.59;;;8.28;96.91
76632;BME280;65526;48.578;-4.520;2023-04-06T02:51:48;100635.19;;;5.78;95.74
76632;BME280;65526;48.578;-4.520;2023-04-06T02:54:19;101622.00;;;11.46;97.25
76632;BME280;65526;48.578;-4.520;2023-04-06T02:56:46;101581.91;;;11.39;98.30
76632;BME280;65526;48.578;-4.520;2023-04-06T02:59:13;101103.91;;;8.30;97.57
76632;BME280;65526;48.578;-4.520;2023-04-06T03:01:44;101151.81;;;8.56;97.73
76632;BME280;65526;48.578;-4.520;2023-04-06T03:04:11;101568.06;;;10.84;97.40
76632;BME280;65526;48.578;-4.520;2023-04-06T03:06:38;100737.25;;;5.86;96.83
76632;BME280;65526;48.578;-4.520;2023-04-06T03:09:15;101208.38;;;8.90;97.41
76632;BME280;65526;48.578;-4.520;2023-04-06T03:11:43;100966.47;;;7.56;96.67
76632;BME280;65526;48.578;-4.520;2023-04-06T03:14:10;100744.16;;;6.06;95.85
76632;BME280;65526;48.578;-4.520;2023-04-06T03:16:36;101167.25;;;8.23;97.93
76632;BME280;65526;48.578;-4.520;2023-04-06T03:19:04;101300.50;;;9.30;97.38
76632;BME280;65526;48.578;-4.520;2023-04-06T03:21:34;100802.09;;;6.54;96.36
76632;BME280;65526;48.578;-4.520;2023-04-06T03:24:00;101334.78;;;9.17;96.50
76632;BME280;65526;48.578;-4.520;2023-04-06T03:26:27;100867.53;;;6.93;95.73
76632;BME280;65526;48.578;-4.520;2023-04-06T03:28:53;101132.78;;;8.55;95.72
76632;BME280;65526;48.578;-4.520;2023-04-06T03:31:26;100999.66;;;7.56;95.41
76632;BME280;65526;48.578;-4.520;2023-04-06T03:34:01;101128.38;;;8.54;94.62
76632;BME280;65526;48.578;-4.520;2023-04-06T03:36:31;101318.97;;;9.26;94.84
76632;BME280;65526;48.578;-4.520;2023-04-06T03:38:59;100794.75;;;6.41;94.14
76632;BME280;65526;48.578;-4.520;2023-04-06T03:41:25;101564.78;;;10.90;94.60
76632;BME280;65526;48.578;-4.520;2023-04-06T03:44:05;100829.09;;;6.57;93.34
76632;BME280;65526;48.578;-4.520;2023-04-06T03:46:32;101524.34;;;10.93;93.56
76632;BME280;65526;48.578;-4.520;2023-04-06T03:48:59;101513.72;;;10.95;93.05
76632;BME280;65526;48.578;-4.520;2023-04-06T03:51:27;100973.63;;;7.83;92.63
76632;BME280;65526;48.578;-4.520;2023-04-06T03:53:54;101186.84;;;9.12;92.27
76632;BME280;65526;48.578;-4.520;2023-04-06T03:56:20;100943.84;;;7.63;92.16
76632;BME280;65526;48.578;-4.520;2023-04-06T03:58:47;101151.84;;;8.65;92.07
76632;BME280;65526;48.578;-4.520;2023-04-06T04:01:17;101507.47;;;10.98;92.14
76632;BME280;65526;48.578;-4.520;2023-04-06T04:03:46;101262.31;;;9.44;92.12
76632;BME280;65526;48.578;-4.520;2023-04-06T04:06:14;100667.59;;;5.64;91.37
76632;BME280;65526;48.578;-4.520;2023-04-06T04:08:41;101541.81;;;11.02;91.76
76632;BME280;65526;48.578;-4.520;2023-04-06T04:11:07;100987.66;;;7.87;91.30
76632;BME280;65526;48.578;-4.520;2023-04-06T04:13:34;101101.31;;;8.51;91.28
76632;BME280;65526;48.578;-4.520;2023-04-06T04:16:03;101524.50;;;10.96;91.11
76632;BME280;65526;48.578;-4.520;2023-04-06T04:18:30;101483.44;;;10.93;91.43
76632;BME280;65526;48.578;-4.520;2023-04-06T04:20:56;101512.41;;;10.92;91.26
76632;BME280;65526;48.578;-4.520;2023-04-06T04:23:23;101467.44;;;10.90;91.41
76632;BME280;65526;48.578;-4.520;2023-04-06T04:25:50;101163.50;;;9.13;91.12
76632;BME280;65526;48.578;-4.520;2023-04-06T04:28:17;101163.25;;;8.81;91.26
76632;BME280;65526;48.578;-4.520;2023-04-06T04:30:45;101231.53;;;9.20;91.23
76632;BME280;65526;48.578;-4.520;2023-04-06T04:33:12;100874.31;;;6.87;90.97
76632;BME280;65526;48.578;-4.520;2023-04-06T04:35:41;100671.56;;;5.49;90.56
76632;BME280;65526;48.578;-4.520;2023-04-06T04:38:08;100804.78;;;6.28;91.01
76632;BME280;65526;48.578;-4.520;2023-04-06T04:40:39;101000.47;;;7.66;90.94
76632;BME280;65526;48.578;-4.520;2023-04-06T04:43:08;101550.41;;;10.80;91.57
76632;BME280;65526;48.578;-4.520;2023-04-06T04:45:34;101472.53;;;10.80;91.64
76632;BME280;65526;48.578;-4.520;2023-04-06T04:48:21;101112.88;;;8.35;91.13
76632;BME280;65526;48.578;-4.520;2023-04-06T04:51:01;101458.72;;;10.62;91.33
76632;BME280;65526;48.578;-4.520;2023-04-06T04:53:37;101041.53;;;7.81;91.05
76632;BME280;65526;48.578;-4.520;2023-04-06T04:56:14;100981.44;;;7.64;90.75
76632;BME280;65526;48.578;-4.520;2023-04-06T04:58:41;100781.19;;;6.14;90.64
76632;BME280;65526;48.578;-4.520;2023-04-06T05:01:08;101526.69;;;10.73;91.21
76632;BME280;65526;48.578;-4.520;2023-04-06T05:03:37;101137.47;;;8.63;90.77
76632;BME280;65526;48.578;-4.520;2023-04-06T05:06:07;101191.75;;;9.07;91.37
76632;BME280;65526;48.578;-4.520;2023-04-06T05:08:36;101441.13;;;10.32;91.35
76632;BME280;65526;48.578;-4.520;2023-04-06T05:11:03;101351.75;;;9.41;91.23
76632;BME280;65526;48.578;-4.520;2023-04-06T05:13:35;101330.53;;;9.53;91.64
76632;BME280;65526;48.578;-4.520;2023-04-06T05:16:07;101332.97;;;9.55;91.40
76632;BME280;65526;48.578;-4.520;2023-04-06T05:18:34;101255.16;;;9.26;91.18
76632;BME280;65526;48.578;-4.520;2023-04-06T05:21:02;100795.78;;;6.06;91.08
76632;BME280;65526;48.578;-4.520;2023-04-06T05:23:38;101270.34;;;8.85;92.14
76632;BME280;65526;48.578;-4.520;2023-04-06T05:26:05;101525.56;;;10.66;92.23
76632;BME280;65526;48.578;-4.520;2023-04-06T05:28:32;101192.63;;;7.99;91.00
76632;BME280;65526;48.578;-4.520;2023-04-06T05:31:00;101281.59;;;9.23;91.74
76632;BME280;65526;48.578;-4.520;2023-04-06T05:33:32;100865.75;;;6.10;90.95
76632;BME280;65526;48.578;-4.520;2023-04-06T05:36:11;101183.75;;;8.62;91.06
76632;BME280;65526;48.578;-4.520;2023-04-06T05:38:41;100969.50;;;7.29;90.79
76632;BME280;65526;48.578;-4.520;2023-04-06T05:41:18;101335.09;;;9.06;91.14
76632;BME280;65526;48.578;-4.520;2023-04-06T05:43:45;101293.03;;;9.13;90.89
76632;BME280;65526;48.578;-4.520;2023-04-06T05:46:11;101280.94;;;8.83;90.60
76632;BME280;65526;48.578;-4.520;2023-04-06T05:48:38;101559.75;;;10.66;91.00
76632;BME280;65526;48.578;-4.520;2023-04-06T05:51:05;101605.38;;;10.65;91.18
76632;BME280;65526;48.578;-4.520;2023-04-06T05:53:40;101039.66;;;7.50;90.69
76632;BME280;65526;48.578;-4.520;2023-04-06T05:56:07;101048.94;;;7.46;90.59
76632;BME280;65526;48.578;-4.520;2023-04-06T05:58:33;101346.03;;;9.46;90.82
76632;BME280;65526;48.578;-4.520;2023-04-06T06:01:00;101386.84;;;9.28;90.80
76632;BME280;65526;48.578;-4.520;2023-04-06T06:03:35;101591.31;;;10.62;90.98
76632;BME280;65526;48.578;-4.520;2023-04-06T06:06:03;101080.38;;;7.76;90.70
76632;BME280;65526;48.578;-4.520;2023-04-06T06:08:36;101307.69;;;8.79;91.09
76632;BME280;65526;48.578;-4.520;2023-04-06T06:11:09;101548.03;;;10.44;91.25
76632;BME280;65526;48.578;-4.520;2023-04-06T06:13:35;101003.56;;;6.99;90.41
76632;BME280;65526;48.578;-4.520;2023-04-06T06:16:02;101173.03;;;8.35;90.85
76632;BME280;65526;48.578;-4.520;2023-04-06T06:18:33;100752.88;;;5.91;90.47
76632;BME280;65526;48.578;-4.520;2023-04-06T06:21:00;100738.81;;;5.70;90.02
76632;BME280;65526;48.578;-4.520;2023-04-06T06:23:26;100951.44;;;7.23;90.21
76632;BME280;65526;48.578;-4.520;2023-04-06T06:25:53;100929.91;;;6.94;90.71
76632;BME280;65526;48.578;-4.520;2023-04-06T06:28:22;100971.47;;;7.20;90.84
76632;BME280;65526;48.578;-4.520;2023-04-06T06:30:50;101281.59;;;8.97;91.02
76632;BME280;65526;48.578;-4.520;2023-04-06T06:33:21;101248.00;;;9.07;91.05
76632;BME280;65526;48.578;-4.520;2023-04-06T06:35:50;101315.38;;;9.08;91.09
76632;BME280;65526;48.578;-4.520;2023-04-06T06:38:17;101116.81;;;7.69;91.05
76632;BME280;65526;48.578;-4.520;2023-04-06T06:40:46;100854.72;;;6.49;90.52
76632;BME280;65526;48.578;-4.520;2023-04-06T06:43:13;101404.63;;;9.87;90.91
76632;BME280;65526;48.578;-4.520;2023-04-06T06:45:55;101154.84;;;7.94;90.24
76632;BME280;65526;48.578;-4.520;2023-04-06T06:48:22;101178.81;;;8.16;90.50
76632;BME280;65526;48.578;-4.520;2023-04-06T06:50:48;101387.31;;;9.73;90.82
76632;BME280;65526;48.578;-4.520;2023-04-06T06:53:15;101091.31;;;7.89;90.29
76632;BME280;65526;48.578;-4.520;2023-04-06T06:55:41;101308.84;;;9.04;90.55
76632;BME280;65526;48.578;-4.520;2023-04-06T06:58:10;101318.63;;;8.93;90.87
76632;BME280;65526;48.578;-4.520;2023-04-06T07:00:37;100840.09;;;6.49;90.32
76632;BME280;65526;48.578;-4.520;2023-04-06T07:03:04;101547.81;;;10.66;91.01
76632;BME280;65526;48.578;-4.520;2023-04-06T07:05:31;101566.22;;;10.96;91.25
76632;BME280;65526;48.578;-4.520;2023-04-06T07:07:58;101338.03;;;9.10;90.42
76632;BME280;65526;48.578;-4.520;2023-04-06T07:10:26;101574.72;;;11.00;90.96
76632;BME280;65526;48.578;-4.520;2023-04-06T07:12:52;101170.00;;;8.06;90.96
76632;BME280;65526;48.578;-4.520;2023-04-06T07:15:19;101295.63;;;9.09;92.33
76632;BME280;65526;48.578;-4.520;2023-04-06T07:17:45;101161.38;;;8.16;92.74
76632;BME280;65526;48.578;-4.520;2023-04-06T07:20:13;101644.94;;;10.88;93.39
76632;BME280;65526;48.578;-4.520;2023-04-06T07:22:41;101558.97;;;10.31;93.39
76632;BME280;65526;48.578;-4.520;2023-04-06T07:25:08;101131.19;;;7.88;94.21
76632;BME280;65526;48.578;-4.520;2023-04-06T07:27:35;101323.34;;;9.09;93.74
76632;BME280;65526;48.578;-4.520;2023-04-06T07:30:05;101383.72;;;9.12;94.40
76632;BME280;65526;48.578;-4.520;2023-04-06T07:32:41;101572.03;;;10.14;94.23
76632;BME280;65526;48.578;-4.520;2023-04-06T07:35:30;101359.75;;;9.08;94.24
76632;BME280;65526;48.578;-4.520;2023-04-06T07:37:57;101085.16;;;7.36;92.83
76632;BME280;65526;48.578;-4.520;2023-04-06T07:40:24;101156.41;;;7.78;92.56
76632;BME280;65526;48.578;-4.520;2023-04-06T07:42:53;101631.03;;;10.97;93.39
76632;BME280;65526;48.578;-4.520;2023-04-06T07:45:20;100958.50;;;6.50;92.35
76632;BME280;65526;48.578;-4.520;2023-04-06T07:47:47;101009.56;;;6.92;92.96
76632;BME280;65526;48.578;-4.520;2023-04-06T07:50:13;100956.25;;;6.61;92.35
76632;BME280;65526;48.578;-4.520;2023-04-06T07:52:40;101701.19;;;11.11;93.84
76632;BME280;65526;48.578;-4.520;2023-04-06T07:55:08;101401.03;;;9.61;93.29
76632;BME280;65526;48.578;-4.520;2023-04-06T07:57:34;101287.13;;;8.97;93.19
76632;BME280;65526;48.578;-4.520;2023-04-06T08:00:01;101391.53;;;9.97;92.86
76632;BME280;65526;48.578;-4.520;2023-04-06T08:02:38;101205.63;;;8.47;92.33
76632;BME280;65526;48.578;-4.520;2023-04-06T08:05:04;101126.22;;;8.25;93.04
76632;BME280;65526;48.578;-4.520;2023-04-06T08:07:31;101387.81;;;9.67;92.71
76632;BME280;65526;48.578;-4.520;2023-04-06T08:09:59;101353.81;;;9.78;92.89
76632;BME280;65526;48.578;-4.520;2023-04-06T08:12:25;100970.63;;;7.20;92.95
76632;BME280;65526;48.578;-4.520;2023-04-06T08:14:52;101398.59;;;9.60;93.03
76632;BME280;65526;48.578;-4.520;2023-04-06T08:17:18;101550.13;;;10.55;93.01
76632;BME280;65526;48.578;-4.520;2023-04-06T08:19:45;101051.28;;;7.87;93.67
76632;BME280;65526;48.578;-4.520;2023-04-06T08:22:12;101205.78;;;8.67;94.44
76632;BME280;65526;48.578;-4.520;2023-04-06T08:24:38;100991.91;;;7.10;93.64
76632;BME280;65526;48.578;-4.520;2023-04-06T08:27:05;101453.91;;;10.08;94.08
76632;BME280;65526;48.578;-4.520;2023-04-06T08:29:31;101377.38;;;9.55;93.85
76632;BME280;65526;48.578;-4.520;2023-04-06T08:31:58;101311.56;;;9.64;94.09
76632;BME280;65526;48.578;-4.520;2023-04-06T08:34:24;101382.53;;;10.08;93.72
76632;BME280;65526;48.578;-4.520;2023-04-06T08:36:50;101650.41;;;11.78;93.32
76632;BME280;65526;48.578;-4.520;2023-04-06T08:39:17;101668.88;;;11.82;93.02
76632;BME280;65526;48.578;-4.520;2023-04-06T08:41:50;101722.81;;;11.78;93.60
76632;BME280;65526;48.578;-4.520;2023-04-06T08:44:18;101486.50;;;10.62;93.01
76632;BME280;65526;48.578;-4.520;2023-04-06T08:46:44;101161.28;;;8.81;92.61
76632;BME280;65526;48.578;-4.520;2023-04-06T08:49:12;101374.38;;;10.03;92.81
76632;BME280;65526;48.578;-4.520;2023-04-06T08:51:41;100846.38;;;6.89;92.78
76632;BME280;65526;48.578;-4.520;2023-04-06T08:54:08;100944.63;;;7.29;92.39
76632;BME280;65526;48.578;-4.520;2023-04-06T08:56:38;101190.63;;;8.99;92.13
76632;BME280;65526;48.578;-4.520;2023-04-06T08:59:05;101359.50;;;9.90;91.96
76632;BME280;65526;48.578;-4.520;2023-04-06T09:01:33;101357.03;;;10.06;91.84
76632;BME280;65526;48.578;-4.520;2023-04-06T09:04:07;101356.03;;;10.11;91.59
76632;BME280;65526;48.578;-4.520;2023-04-06T09:06:37;101494.75;;;10.88;92.06
76632;BME280;65526;48.578;-4.520;2023-04-06T09:09:03;101381.09;;;9.85;91.65
76632;BME280;65526;48.578;-4.520;2023-04-06T09:14:10;101264.63;;;9.25;91.36
76632;BME280;65526;48.578;-4.520;2023-04-06T09:16:41;101344.16;;;10.02;90.77
76632;BME280;65526;48.578;-4.520;2023-04-06T09:19:08;100968.09;;;7.75;90.67
76632;BME280;65526;48.578;-4.520;2023-04-06T09:21:36;101676.03;;;12.21;91.32
76632;BME280;65526;48.578;-4.520;2023-04-06T09:24:03;101629.69;;;11.87;90.58
76632;BME280;65526;48.578;-4.520;2023-04-06T09:26:30;101522.25;;;11.19;90.59
76632;BME280;65526;48.578;-4.520;2023-04-06T09:28:59;101383.91;;;10.40;89.60
76632;BME280;65526;48.578;-4.520;2023-04-06T09:31:29;101463.81;;;10.52;89.48
76632;BME280;65526;48.578;-4.520;2023-04-06T09:33:56;100895.06;;;7.33;89.62
76632;BME280;65526;48.578;-4.520;2023-04-06T09:36:33;101381.47;;;10.39;89.39
76632;BME280;65526;48.578;-4.520;2023-04-06T09:39:03;101671.34;;;12.34;89.88
76632;BME280;65526;48.578;-4.520;2023-04-06T09:41:36;101369.28;;;10.14;89.62
76632;BME280;65526;48.578;-4.520;2023-04-06T09:44:06;101709.16;;;12.44;90.03
76632;BME280;65526;48.578;-4.520;2023-04-06T09:46:35;101090.06;;;8.73;88.56
76632;BME280;65526;48.578;-4.520;2023-04-06T09:49:02;101214.19;;;9.48;88.62
76632;BME280;65526;48.578;-4.520;2023-04-06T09:51:45;101321.94;;;9.93;87.85
76632;BME280;65526;48.578;-4.520;2023-04-06T09:54:17;101677.34;;;12.45;88.43
76632;BME280;65526;48.578;-4.520;2023-04-06T10:02:58;101470.09;;;10.78;88.59
76632;BME280;65526;48.578;-4.520;2023-04-06T10:05:43;101425.75;;;10.82;87.49
76632;BME280;65526;48.578;-4.520;2023-04-06T10:08:13;101646.47;;;12.00;87.54
76632;BME280;65526;48.578;-4.520;2023-04-06T10:10:41;100848.69;;;7.30;87.92
76632;BME280;65526;48.578;-4.520;2023-04-06T10:13:10;101651.78;;;12.43;88.34
76632;BME280;65526;48.578;-4.520;2023-04-06T10:15:38;101259.41;;;9.96;87.03
76632;BME280;65526;48.578;-4.520;2023-04-06T10:18:06;101289.69;;;9.71;87.57
76632;BME280;65526;48.578;-4.520;2023-04-06T10:20:49;101288.34;;;9.77;88.44
76632;BME280;65526;48.578;-4.520;2023-04-06T10:23:45;100908.22;;;7.62;87.69
76632;BME280;65526;48.578;-4.520;2023-04-06T10:26:14;101544.13;;;11.00;87.46
76632;BME280;65526;48.578;-4.520;2023-04-06T10:28:44;101464.81;;;10.85;88.44
76632;BME280;65526;48.578;-4.520;2023-04-06T10:31:11;101697.50;;;12.21;88.74
76632;BME280;65526;48.578;-4.520;2023-04-06T10:33:38;101330.22;;;9.46;88.06
76632;BME280;65526;48.578;-4.520;2023-04-06T10:36:21;101340.63;;;9.75;88.48
76632;BME280;65526;48.578;-4.520;2023-04-06T10:39:02;101713.91;;;12.43;89.55
76632;BME280;65526;48.578;-4.520;2023-04-06T10:41:34;101355.84;;;10.24;90.38
76632;BME280;65526;48.578;-4.520;2023-04-06T10:44:01;101223.84;;;9.80;87.77
76632;BME280;65526;48.578;-4.520;2023-04-06T10:46:30;101469.03;;;10.91;86.87
76632;BME280;65526;48.578;-4.520;2023-04-06T10:48:57;101736.47;;;12.59;87.93
76632;BME280;65526;48.578;-4.520;2023-04-06T10:51:27;101430.31;;;10.86;87.02
76632;BME280;65526;48.578;-4.520;2023-04-06T10:53:55;101460.19;;;10.98;86.82
76632;BME280;65526;48.578;-4.520;2023-04-06T10:56:23;101781.13;;;12.50;87.60
76632;BME280;65526;48.578;-4.520;2023-04-06T10:58:53;101494.91;;;10.92;86.98
76632;BME280;65526;48.578;-4.520;2023-04-06T11:01:23;101491.34;;;10.83;87.64
76632;BME280;65526;48.578;-4.520;2023-04-06T11:03:53;101344.78;;;10.07;86.23
76632;BME280;65526;48.578;-4.520;2023-04-06T11:06:26;101717.72;;;12.39;86.35
76632;BME280;65526;48.578;-4.520;2023-04-06T11:08:54;101457.19;;;10.73;84.64
76632;BME280;65526;48.578;-4.520;2023-04-06T11:11:23;101373.25;;;9.96;85.05
76632;BME280;65526;48.578;-4.520;2023-04-06T11:13:53;101745.81;;;12.54;86.18
76632;BME280;65526;48.578;-4.520;2023-04-06T11:16:21;101720.25;;;12.73;87.31
76632;BME280;65526;48.578;-4.520;2023-04-06T11:18:55;101466.72;;;11.31;86.09
76632;BME280;65526;48.578;-4.520;2023-04-06T11:24:10;101454.81;;;11.22;83.00
76632;BME280;65526;48.578;-4.520;2023-04-06T11:26:44;101350.34;;;9.99;83.25
76632;BME280;65526;48.578;-4.520;2023-04-06T11:29:12;101732.41;;;12.48;83.64
76632;BME280;65526;48.578;-4.520;2023-04-06T11:31:40;101810.00;;;12.75;83.34
76632;BME280;65526;48.578;-4.520;2023-04-06T11:34:12;101193.19;;;9.04;80.83
76632;BME280;65526;48.578;-4.520;2023-04-06T11:36:43;101431.34;;;10.73;82.20
76632;BME280;65526;48.578;-4.520;2023-04-06T11:39:11;101557.38;;;11.32;82.77
76632;BME280;65526;48.578;-4.520;2023-04-06T11:41:38;101025.09;;;8.19;82.70
76632;BME280;65526;48.578;-4.520;2023-04-06T11:44:05;101547.56;;;10.97;81.25
76632;BME280;65526;48.578;-4.520;2023-04-06T11:46:32;100925.66;;;7.53;82.24
76632;BME280;65526;48.578;-4.520;2023-04-06T11:49:00;101647.28;;;11.71;82.11
76632;BME280;65526;48.578;-4.520;2023-04-06T11:51:27;101452.22;;;10.88;82.07
76632;BME280;65526;48.578;-4.520;2023-04-06T11:53:54;101324.41;;;9.86;82.83
76632;BME280;65526;48.578;-4.520;2023-04-06T11:56:30;101325.69;;;9.97;81.55
76632;BME280;65526;48.578;-4.520;2023-04-06T11:58:57;101714.28;;;12.62;82.27
76632;BME280;65526;48.578;-4.520;2023-04-06T12:01:24;101488.34;;;10.96;82.69
76632;BME280;65526;48.578;-4.520;2023-04-06T12:03:51;101038.44;;;8.51;82.41
76632;BME280;65526;48.578;-4.520;2023-04-06T12:06:18;101716.56;;;12.81;83.21
76632;BME280;65526;48.578;-4.520;2023-04-06T12:08:45;101474.22;;;11.10;83.59
76632;BME280;65526;48.578;-4.520;2023-04-06T12:11:11;101292.84;;;10.08;83.22
76632;BME280;65526;48.578;-4.520;2023-04-06T12:13:38;101082.69;;;8.77;83.18
76632;BME280;65526;48.578;-4.520;2023-04-06T12:16:05;101321.53;;;10.58;83.01
76632;BME280;65526;48.578;-4.520;2023-04-06T12:18:31;101470.50;;;11.56;82.38
76632;BME280;65526;48.578;-4.520;2023-04-06T12:20:58;101466.69;;;11.61;83.30
76632;BME280;65526;48.578;-4.520;2023-04-06T12:23:24;101473.91;;;11.82;82.08
76632;BME280;65526;48.578;-4.520;2023-04-06T12:25:51;101661.81;;;12.77;81.57
76632;BME280;65526;48.578;-4.520;2023-04-06T12:28:17;101735.91;;;13.73;81.86
76632;BME280;65526;48.578;-4.520;2023-04-06T12:30:44;100967.50;;;9.05;80.90
76632;BME280;65526;48.578;-4.520;2023-04-06T12:33:10;101426.53;;;12.03;80.01
76632;BME280;65526;48.578;-4.520;2023-04-06T12:35:36;101755.25;;;14.02;79.16
76632;BME280;65526;48.578;-4.520;2023-04-06T12:38:03;101490.75;;;12.40;77.80
76632;BME280;65526;48.578;-4.520;2023-04-06T12:40:29;101486.59;;;12.13;77.94
76632;BME280;65526;48.578;-4.520;2023-04-06T12:42:56;101472.97;;;12.32;77.28
76632;BME280;65526;48.578;-4.520;2023-04-06T12:45:22;101285.94;;;11.02;76.25
76632;BME280;65526;48.578;-4.520;2023-04-06T12:47:49;101766.31;;;13.86;77.52
76632;BME280;65526;48.578;-4.520;2023-04-06T12:50:16;101483.41;;;12.02;77.27
76632;BME280;65526;48.578;-4.520;2023-04-06T12:52:43;101467.59;;;11.94;77.29
76632;BME280;65526;48.578;-4.520;2023-04-06T12:55:10;101298.25;;;10.71;78.70
76632;BME280;65526;48.578;-4.520;2023-04-06T12:57:36;101423.50;;;11.55;79.84
76632;BME280;65526;48.578;-4.520;2023-04-06T13:00:04;101227.31;;;10.65;78.62
76632;BME280;65526;48.578;-4.520;2023-04-06T13:02:31;101018.09;;;9.02;79.25
76632;BME280;65526;48.578;-4.520;2023-04-06T13:04:57;101284.16;;;11.18;79.50
76632;BME280;65526;48.578;-4.520;2023-04-06T13:07:24;101095.25;;;9.68;77.28